Aviation Digital Data Service (ADDS)

Output produced by METARs form (0430 UTC 28 April 2017)
found at http://www.aviationweather.gov/adds/metars/
 
KILG 280351Z 19007KT 10SM CLR 19/17 A2984 RMK AO2 SLP105 T01890167
KILG 272327Z 2800/2824 17008KT P6SM BKN250 
     FM280400 20006KT P6SM BKN060 
     FM280700 24006KT P6SM BKN045 
     TEMPO 2807/2810 -SHRA OVC025 
     FM281000 29006KT P6SM BKN035 
     FM281300 29008KT P6SM SCT050 
     FM282100 24006KT P6SM SCT050